Time;durP1;ratioP1;P1;durP2;ratioP2;P2;SDS_P1;SDS_P2;PMS_P1;PMS_P2;Temp;Humidity;BMP_temperature;BMP_pressure;BME280_temperature;BME280_humidity;BME280_pressure;Samples;Min_cycle;Max_cycle;Signal;HPM_P1;HPM_P2
2022/10/14 00:01:12;;;;;;;9.13;6.43;;;;;;;16.36;100.00;100935.94;6278020;22;20019;-64
2022/10/14 00:03:39;;;;;;;8.30;6.00;;;;;;;16.50;100.00;100930.88;6278174;22;20034;-64
2022/10/14 00:06:09;;;;;;;10.90;5.90;;;;;;;16.52;100.00;100943.28;6251155;22;20018;-64
2022/10/14 00:08:36;;;;;;;8.07;5.57;;;;;;;16.58;100.00;100938.31;6251413;22;20037;-64
2022/10/14 00:11:09;;;;;;;9.68;5.75;;;;;;;16.47;100.00;100937.97;6277719;22;20020;-64
2022/10/14 00:13:37;;;;;;;8.73;6.13;;;;;;;16.57;100.00;100931.94;6277781;22;20020;-64
2022/10/14 00:16:05;;;;;;;8.10;5.80;;;;;;;16.57;100.00;100936.69;6276537;22;20020;-64
2022/10/14 00:18:32;;;;;;;8.25;5.90;;;;;;;16.55;100.00;100931.47;6277626;22;20030;-64
2022/10/14 00:21:00;;;;;;;8.77;5.40;;;;;;;16.58;100.00;100922.41;6277724;22;20025;-64
2022/10/14 00:23:29;;;;;;;7.63;5.43;;;;;;;16.49;100.00;100924.50;6277759;22;20423;-64
2022/10/14 00:25:56;;;;;;;6.97;5.35;;;;;;;16.50;100.00;100919.75;6276234;22;20011;-64
2022/10/14 00:28:29;;;;;;;8.85;5.68;;;;;;;16.54;100.00;100921.50;6251291;22;20023;-64
2022/10/14 00:30:58;;;;;;;10.70;6.18;;;;;;;16.52;100.00;100923.00;6249314;22;20082;-63
2022/10/14 00:33:26;;;;;;;7.80;5.57;;;;;;;16.50;100.00;100905.84;6250765;22;20035;-64
2022/10/14 00:35:57;;;;;;;7.53;5.22;;;;;;;16.69;100.00;100912.44;6250613;22;20015;-64
2022/10/14 00:38:30;;;;;;;8.40;5.30;;;;;;;16.68;100.00;100905.25;6278143;22;20023;-65
2022/10/14 00:40:58;;;;;;;7.00;4.90;;;;;;;16.66;100.00;100898.44;6277438;22;20026;-64
2022/10/14 00:43:26;;;;;;;8.90;4.63;;;;;;;16.55;100.00;100898.09;6277862;22;20011;-64
2022/10/14 00:45:54;;;;;;;8.02;4.72;;;;;;;16.68;100.00;100894.13;6278324;22;20016;-64
2022/10/14 00:48:23;;;;;;;10.90;4.68;;;;;;;16.55;100.00;100889.75;6277609;22;20431;-64
2022/10/14 00:50:55;;;;;;;10.07;4.55;;;;;;;16.49;100.00;100896.69;6277051;22;20024;-64
2022/10/14 00:53:22;;;;;;;6.40;3.83;;;;;;;16.60;100.00;100902.59;6278242;22;20023;-63
2022/10/14 00:55:52;;;;;;;7.22;4.63;;;;;;;16.51;100.00;100899.94;6225539;22;20019;-64
2022/10/14 00:58:22;;;;;;;7.13;4.43;;;;;;;16.51;100.00;100888.81;6251295;22;20020;-64
2022/10/14 01:00:50;;;;;;;7.53;4.60;;;;;;;16.57;100.00;100883.84;6250428;22;20344;-63
2022/10/14 01:03:20;;;;;;;6.78;4.47;;;;;;;16.56;100.00;100890.56;6277635;22;20023;-63
2022/10/14 01:05:54;;;;;;;6.72;4.45;;;;;;;16.49;100.00;100890.34;6250307;22;20016;-64
2022/10/14 01:08:30;;;;;;;6.40;4.32;;;;;;;16.64;100.00;100884.88;6250422;22;20026;-64
2022/10/14 01:11:13;;;;;;;6.32;4.18;;;;;;;16.42;100.00;100879.75;6250108;22;20031;-64
2022/10/14 01:13:49;;;;;;;7.00;4.50;;;;;;;16.56;100.00;100882.22;6225704;22;20067;-63
2022/10/14 01:16:20;;;;;;;8.05;3.85;;;;;;;16.63;100.00;100868.53;6226192;22;20008;-64
2022/10/14 01:19:32;;;;;;;7.80;4.20;;;;;;;16.60;100.00;100874.78;6277879;22;20023;-64
2022/10/14 01:22:31;;;;;;;5.30;3.85;;;;;;;16.81;100.00;100869.88;6153334;23;20028;-64
2022/10/14 01:25:19;;;;;;;7.40;4.47;;;;;;;16.67;100.00;100852.75;6153069;23;20024;-64
2022/10/14 01:28:15;;;;;;;5.85;4.00;;;;;;;16.71;100.00;100859.25;6104318;23;20061;-64
2022/10/14 01:30:45;;;;;;;5.75;4.15;;;;;;;16.63;100.00;100849.88;6285532;22;20016;-63
2022/10/14 01:33:23;;;;;;;7.35;4.90;;;;;;;16.55;100.00;100853.59;6250556;22;20019;-63
2022/10/14 01:36:11;;;;;;;8.88;4.88;;;;;;;16.71;100.00;100854.50;6250353;22;20297;-64
2022/10/14 01:38:44;;;;;;;5.60;4.10;;;;;;;16.84;100.00;100856.06;6225200;22;20041;-64
2022/10/14 01:41:27;;;;;;;6.50;4.45;;;;;;;16.88;100.00;100851.44;6224019;22;20027;-65
2022/10/14 01:43:59;;;;;;;6.60;4.45;;;;;;;16.79;100.00;100847.97;6235116;22;20019;-64
2022/10/14 01:46:28;;;;;;;7.43;4.38;;;;;;;16.80;100.00;100849.63;6250959;22;20032;-65
2022/10/14 01:49:00;;;;;;;5.63;4.35;;;;;;;16.76;100.00;100840.34;6251207;22;20031;-64
2022/10/14 01:51:32;;;;;;;7.05;4.70;;;;;;;16.81;100.00;100842.88;6250921;22;20024;-65
2022/10/14 01:54:03;;;;;;;5.93;4.30;;;;;;;16.94;100.00;100838.09;6277118;22;20023;-63
2022/10/14 01:56:31;;;;;;;6.63;4.40;;;;;;;16.93;100.00;100844.81;6249892;22;20020;-65
2022/10/14 01:59:05;;;;;;;6.28;4.32;;;;;;;16.96;100.00;100837.75;6250497;22;20115;-64
2022/10/14 02:01:33;;;;;;;6.65;4.28;;;;;;;17.00;100.00;100838.66;6250202;22;20023;-64
2022/10/14 02:04:01;;;;;;;6.75;4.32;;;;;;;17.11;99.57;100839.75;6276383;22;20019;-64
2022/10/14 02:06:31;;;;;;;6.72;3.72;;;;;;;17.09;99.13;100842.91;6277286;22;20019;-64
2022/10/14 02:09:11;;;;;;;5.03;3.42;;;;;;;17.19;98.66;100833.25;6276807;22;20019;-63
2022/10/14 02:11:56;;;;;;;5.90;3.85;;;;;;;17.01;98.39;100837.47;6252010;22;20048;-63
2022/10/14 02:14:26;;;;;;;5.72;3.90;;;;;;;17.12;98.40;100822.69;6226513;22;20359;-64
2022/10/14 02:16:54;;;;;;;7.30;4.55;;;;;;;16.95;98.98;100828.56;6277635;22;20384;-64
2022/10/14 02:19:27;;;;;;;7.05;4.57;;;;;;;16.98;99.14;100818.72;6226500;22;20455;-64
2022/10/14 02:22:00;;;;;;;6.30;4.13;;;;;;;17.09;98.89;100820.63;6278618;22;20034;-63
2022/10/14 02:24:37;;;;;;;6.47;4.22;;;;;;;17.13;98.43;100820.72;6251810;22;20125;-63
2022/10/14 02:27:08;;;;;;;6.35;4.22;;;;;;;17.14;98.70;100814.03;6226470;22;20035;-63
2022/10/14 02:29:37;;;;;;;5.78;4.00;;;;;;;17.16;98.43;100820.00;6226463;22;20026;-64
2022/10/14 02:32:06;;;;;;;6.07;4.10;;;;;;;17.19;98.29;100819.31;6251172;22;20027;-64
2022/10/14 02:34:34;;;;;;;6.68;4.22;;;;;;;17.26;97.75;100825.88;6250992;22;20020;-64
2022/10/14 02:37:02;;;;;;;6.72;4.00;;;;;;;17.31;97.03;100814.47;6251208;22;20019;-64
2022/10/14 02:39:35;;;;;;;6.07;3.70;;;;;;;17.39;96.53;100813.53;6226684;22;20371;-63
2022/10/14 02:42:04;;;;;;;5.43;4.10;;;;;;;17.31;96.38;100810.91;6226700;22;20020;-63
2022/10/14 02:44:33;;;;;;;6.53;4.38;;;;;;;17.36;96.36;100814.25;6251723;22;20031;-64
2022/10/14 02:47:00;;;;;;;7.25;4.30;;;;;;;17.40;95.78;100815.13;6278892;22;20014;-64
2022/10/14 02:49:29;;;;;;;6.45;4.75;;;;;;;17.38;96.05;100811.91;6250495;22;20024;-63
2022/10/14 02:51:56;;;;;;;6.30;4.18;;;;;;;17.28;95.95;100808.81;6250388;22;20025;-63
2022/10/14 02:54:23;;;;;;;7.25;4.80;;;;;;;17.12;97.65;100796.88;6250583;22;20459;-63
2022/10/14 02:56:51;;;;;;;9.82;5.10;;;;;;;17.13;98.33;100807.63;6250530;22;20015;-63
2022/10/14 02:59:18;;;;;;;7.22;4.63;;;;;;;17.20;97.72;100807.84;6251638;22;20041;-64
2022/10/14 03:01:45;;;;;;;7.05;5.03;;;;;;;17.18;98.36;100812.94;6274977;22;20027;-64
2022/10/14 03:04:15;;;;;;;7.40;4.32;;;;;;;17.22;98.32;100805.50;6251561;22;20030;-64
2022/10/14 03:06:42;;;;;;;6.72;4.85;;;;;;;17.29;97.75;100810.47;6278497;22;20035;-64
2022/10/14 03:09:09;;;;;;;7.15;4.72;;;;;;;17.05;98.40;100808.56;6251434;22;20020;-64
2022/10/14 03:11:39;;;;;;;7.35;5.10;;;;;;;17.11;99.52;100809.97;6251050;22;20023;-64
2022/10/14 03:14:12;;;;;;;6.30;4.20;;;;;;;17.27;98.50;100810.81;6251438;22;20125;-64
2022/10/14 03:16:41;;;;;;;7.28;4.78;;;;;;;17.12;98.73;100816.34;6251103;22;20015;-64
2022/10/14 03:19:11;;;;;;;;;;;;;;;17.15;98.80;100804.50;6252233;22;20024;-64
2022/10/14 03:21:43;;;;;;;5.90;3.90;;;;;;;17.04;99.86;100801.41;6226241;22;19937;-63
2022/10/14 03:24:17;;;;;;;8.50;4.78;;;;;;;16.82;100.00;100815.88;6251335;22;20038;-65
2022/10/14 03:26:46;;;;;;;7.13;4.22;;;;;;;16.97;100.00;100808.72;6225462;22;20012;-63
2022/10/14 03:29:18;;;;;;;6.25;4.15;;;;;;;16.98;100.00;100816.72;6250993;22;20050;-63
2022/10/14 03:31:53;;;;;;;6.15;3.67;;;;;;;16.98;100.00;100810.38;6227721;22;20284;-63
2022/10/14 03:34:40;;;;;;;5.95;3.50;;;;;;;17.21;99.53;100803.88;6279025;22;20028;-63
2022/10/14 03:37:13;;;;;;;5.95;3.30;;;;;;;17.20;98.96;100796.69;6251122;22;20022;-63
2022/10/14 03:39:47;;;;;;;5.75;2.97;;;;;;;17.29;97.99;100797.34;6251554;22;20019;-65
2022/10/14 03:42:16;;;;;;;5.60;3.20;;;;;;;17.27;97.56;100796.06;6250408;22;20024;-63
2022/10/14 03:44:46;;;;;;;5.57;2.78;;;;;;;17.24;97.81;100794.81;6244402;22;20024;-63
2022/10/14 03:47:17;;;;;;;4.60;2.55;;;;;;;17.24;97.47;100785.66;6225500;22;20012;-64
2022/10/14 03:49:45;;;;;;;4.05;2.63;;;;;;;17.09;97.89;100787.22;6226347;22;20019;-64
2022/10/14 03:52:32;;;;;;;5.05;2.47;;;;;;;17.26;97.42;100792.47;6233901;22;20020;-64
2022/10/14 03:55:16;;;;;;;6.25;2.80;;;;;;;17.27;96.23;100788.53;6250433;22;20016;-64
2022/10/14 03:57:46;;;;;;;5.22;2.53;;;;;;;17.35;95.92;100795.09;6251085;22;20030;-64
2022/10/14 04:00:15;;;;;;;4.78;2.15;;;;;;;17.26;96.24;100798.03;6225478;22;20024;-63
2022/10/14 04:02:48;;;;;;;3.45;1.92;;;;;;;17.25;95.76;100799.22;6224772;22;20020;-65
2022/10/14 04:05:32;;;;;;;4.50;1.67;;;;;;;17.40;95.22;100789.28;6228838;22;20019;-63
2022/10/14 04:08:03;;;;;;;4.28;1.80;;;;;;;16.84;95.21;100803.22;6251251;22;20012;-64
2022/10/14 04:10:30;;;;;;;3.03;1.77;;;;;;;16.71;97.37;100792.50;6224112;22;20024;-65
2022/10/14 04:13:00;;;;;;;3.45;1.85;;;;;;;16.84;97.83;100800.44;6251232;22;20347;-63
2022/10/14 04:15:35;;;;;;;3.20;1.80;;;;;;;16.60;98.72;100805.25;6250808;22;20083;-64
2022/10/14 04:18:22;;;;;;;4.93;1.92;;;;;;;16.68;98.44;100794.00;6234667;22;20030;-64
2022/10/14 04:20:52;;;;;;;3.38;1.80;;;;;;;16.75;97.49;100801.75;6250308;22;20016;-64
2022/10/14 04:23:22;;;;;;;3.25;1.80;;;;;;;16.88;97.89;100792.19;6226938;22;20027;-64
2022/10/14 04:25:53;;;;;;;4.43;1.90;;;;;;;16.77;97.98;100791.09;6224585;22;20407;-64
2022/10/14 04:28:22;;;;;;;4.32;1.67;;;;;;;16.87;98.33;100773.88;6250995;22;20031;-64
2022/10/14 04:30:59;;;;;;;3.25;1.50;;;;;;;16.97;96.93;100784.50;6249663;22;20016;-63
2022/10/14 04:33:33;;;;;;;2.38;1.40;;;;;;;17.09;96.20;100791.97;6237286;22;20016;-64
2022/10/14 04:36:09;;;;;;;3.05;1.40;;;;;;;17.25;95.11;100784.47;6250431;22;20023;-63
2022/10/14 04:38:39;;;;;;;4.57;1.52;;;;;;;17.27;94.92;100787.72;6200680;22;20026;-63
2022/10/14 04:41:09;;;;;;;3.33;1.40;;;;;;;17.35;94.09;100795.91;6225293;22;20463;-64
2022/10/14 04:43:40;;;;;;;2.60;1.50;;;;;;;17.41;93.56;100802.03;6221723;23;20248;-64
2022/10/14 04:46:19;;;;;;;2.40;1.40;;;;;;;17.31;93.16;100791.41;6220346;23;20481;-66
2022/10/14 04:48:48;;;;;;;3.58;1.60;;;;;;;17.13;93.47;100776.19;6220814;23;20021;-64
2022/10/14 04:51:16;;;;;;;2.92;1.20;;;;;;;16.99;93.65;100776.63;6245279;23;20016;-63
2022/10/14 04:54:01;;;;;;;2.83;1.60;;;;;;;17.05;95.44;100768.84;6194824;23;20016;-64
2022/10/14 04:56:55;;;;;;;2.55;2.00;;;;;;;16.89;95.49;100771.56;6241781;23;20464;-63
2022/10/14 04:59:23;;;;;;;2.00;1.35;;;;;;;17.06;95.32;100770.44;6220391;23;20436;-63
2022/10/14 05:01:59;;;;;;;3.53;1.73;;;;;;;17.18;94.89;100779.53;6220112;23;20023;-64
2022/10/14 05:04:36;;;;;;;4.20;1.70;;;;;;;17.27;94.22;100771.84;6220082;23;20028;-65
2022/10/14 05:07:03;;;;;;;4.28;1.70;;;;;;;17.22;94.22;100772.09;6219834;23;20016;-64
2022/10/14 05:09:32;;;;;;;2.67;1.65;;;;;;;17.27;93.96;100776.59;6219982;23;20020;-63
2022/10/14 05:11:59;;;;;;;2.38;1.60;;;;;;;17.29;93.93;100772.28;6229506;23;20308;-63
2022/10/14 05:14:37;;;;;;;2.38;1.65;;;;;;;17.18;92.99;100773.16;6219646;23;20019;-63
2022/10/14 05:17:21;;;;;;;4.45;1.70;;;;;;;16.98;94.33;100772.19;6219038;23;20023;-64
2022/10/14 05:19:48;;;;;;;2.75;1.50;;;;;;;16.88;94.69;100775.50;6219954;23;20039;-64
2022/10/14 05:22:18;;;;;;;2.85;1.50;;;;;;;17.08;95.29;100771.72;6219608;23;20463;-64
2022/10/14 05:24:45;;;;;;;2.60;1.70;;;;;;;17.19;94.43;100770.00;6220160;23;20020;-64
2022/10/14 05:27:13;;;;;;;5.28;2.00;;;;;;;17.17;94.09;100760.41;6219558;23;20311;-63
2022/10/14 05:29:42;;;;;;;3.90;1.77;;;;;;;17.23;94.28;100764.53;6220068;23;20027;-64
2022/10/14 05:32:09;;;;;;;3.60;1.80;;;;;;;17.26;93.05;100761.84;6229802;23;20016;-64
2022/10/14 05:34:43;;;;;;;2.80;1.60;;;;;;;17.27;93.05;100771.03;6194626;23;20020;-64
2022/10/14 05:37:20;;;;;;;3.60;2.03;;;;;;;17.37;92.93;100765.75;6219756;23;20016;-63
2022/10/14 05:39:55;;;;;;;2.58;1.55;;;;;;;17.44;92.58;100754.78;6219378;23;20031;-64
2022/10/14 05:42:25;;;;;;;3.60;1.70;;;;;;;17.41;92.31;100757.47;6220501;23;20543;-64
2022/10/14 05:44:55;;;;;;;3.53;1.92;;;;;;;17.28;92.58;100761.50;6271243;22;20297;-64
2022/10/14 05:47:24;;;;;;;4.00;2.05;;;;;;;17.11;94.16;100759.84;6263092;22;20026;-63
2022/10/14 05:49:56;;;;;;;5.45;2.40;;;;;;;17.13;95.02;100756.72;6253149;22;20039;-64
2022/10/14 05:52:24;;;;;;;4.07;2.40;;;;;;;17.18;94.34;100754.47;6279898;22;20019;-64
2022/10/14 05:54:52;;;;;;;5.03;2.88;;;;;;;17.19;94.10;100760.88;6251683;22;20023;-64
2022/10/14 05:57:23;;;;;;;4.15;2.33;;;;;;;17.13;93.83;100765.88;6251845;22;20020;-66
2022/10/14 05:59:50;;;;;;;6.30;2.95;;;;;;;17.18;94.77;100762.00;6252623;22;20020;-64
2022/10/14 06:02:18;;;;;;;5.90;2.97;;;;;;;17.20;94.08;100766.06;6252276;22;20020;-63
2022/10/14 06:04:46;;;;;;;8.48;3.10;;;;;;;17.06;95.19;100767.66;6252674;22;20026;-64
2022/10/14 06:07:13;;;;;;;5.00;3.08;;;;;;;17.06;95.23;100767.66;6252944;22;20012;-63
2022/10/14 06:09:41;;;;;;;7.57;3.20;;;;;;;17.11;94.97;100772.94;6279069;22;20335;-65
2022/10/14 06:12:09;;;;;;;4.63;2.80;;;;;;;17.19;94.89;100770.00;6279212;22;20016;-65
2022/10/14 06:14:37;;;;;;;9.38;3.42;;;;;;;17.18;94.70;100764.81;6252280;22;20024;-64
2022/10/14 06:17:05;;;;;;;6.85;4.05;;;;;;;17.30;94.12;100759.97;6252042;22;20023;-63
2022/10/14 06:19:32;;;;;;;8.15;4.60;;;;;;;17.42;93.41;100768.25;6226270;22;20079;-64
2022/10/14 06:22:00;;;;;;;8.60;4.70;;;;;;;17.27;93.67;100768.22;6279327;22;20031;-64
2022/10/14 06:24:27;;;;;;;6.88;4.35;;;;;;;17.39;94.07;100765.38;6278440;22;20016;-64
2022/10/14 06:26:54;;;;;;;7.85;4.55;;;;;;;17.29;93.48;100769.50;6279105;22;20034;-64
2022/10/14 06:29:25;;;;;;;4.50;2.85;;;;;;;17.19;93.33;100769.22;6279689;22;20012;-63
2022/10/14 06:31:52;;;;;;;6.38;3.20;;;;;;;17.09;93.50;100773.31;6278887;22;20030;-63
2022/10/14 06:34:22;;;;;;;6.38;3.22;;;;;;;17.21;94.52;100767.69;6279675;22;20012;-64
2022/10/14 06:36:49;;;;;;;6.60;3.22;;;;;;;17.16;93.55;100776.28;6278338;22;20023;-64
2022/10/14 06:39:17;;;;;;;8.98;3.38;;;;;;;17.07;94.40;100778.44;6278448;22;20041;-65
2022/10/14 06:41:44;;;;;;;5.00;3.03;;;;;;;17.24;96.98;100775.34;6250182;22;20034;-65
2022/10/14 06:44:19;;;;;;;5.93;3.30;;;;;;;17.26;97.71;100772.19;6246883;23;20024;-65
2022/10/14 06:46:46;;;;;;;7.05;3.40;;;;;;;17.05;95.92;100768.84;6248419;23;20039;-63
2022/10/14 06:49:13;;;;;;;6.40;3.25;;;;;;;17.17;98.00;100765.97;6248297;23;20031;-63
2022/10/14 06:51:41;;;;;;;5.30;3.55;;;;;;;17.21;97.28;100775.25;6248157;23;20016;-64
2022/10/14 06:54:08;;;;;;;4.88;3.10;;;;;;;17.39;97.12;100779.28;6221015;23;20020;-63
2022/10/14 06:56:35;;;;;;;7.03;2.55;;;;;;;17.39;95.58;100782.91;6247357;23;20028;-63
2022/10/14 06:59:04;;;;;;;8.63;3.30;;;;;;;17.46;93.59;100779.47;6247566;23;20016;-64
2022/10/14 07:01:31;;;;;;;5.50;2.25;;;;;;;17.38;90.06;100786.84;6219135;23;20020;-64
2022/10/14 07:03:59;;;;;;;5.03;2.38;;;;;;;17.31;88.84;100783.84;6247084;23;20046;-64
2022/10/14 07:06:26;;;;;;;8.23;2.35;;;;;;;17.20;89.55;100791.13;6194044;23;20028;-65
2022/10/14 07:08:53;;;;;;;6.22;2.03;;;;;;;16.94;90.84;100790.78;6194941;23;20483;-64
2022/10/14 07:11:21;;;;;;;6.28;2.00;;;;;;;16.76;91.10;100804.19;6247081;23;20020;-65
2022/10/14 07:13:48;;;;;;;5.38;2.38;;;;;;;16.42;93.09;100807.47;6246856;23;20020;-65
2022/10/14 07:16:15;;;;;;;4.28;1.90;;;;;;;16.56;95.00;100805.16;6246141;23;20336;-65
2022/10/14 07:18:43;;;;;;;8.27;2.38;;;;;;;16.72;93.81;100808.00;6246543;23;20020;-66
2022/10/14 07:21:10;;;;;;;6.43;2.20;;;;;;;16.71;93.59;100811.97;6246818;23;20020;-65
2022/10/14 07:23:37;;;;;;;3.55;1.90;;;;;;;16.75;94.37;100813.66;6220451;23;20202;-65
2022/10/14 07:26:05;;;;;;;5.75;1.77;;;;;;;16.64;94.25;100809.78;6195442;23;20118;-66
2022/10/14 07:28:32;;;;;;;6.43;2.08;;;;;;;16.67;95.05;100808.25;6248295;23;20012;-66
2022/10/14 07:31:02;;;;;;;6.35;2.47;;;;;;;16.47;95.08;100814.81;6246502;23;20024;-65
2022/10/14 07:33:30;;;;;;;8.75;2.33;;;;;;;16.52;95.61;100818.16;6246659;23;20416;-65
2022/10/14 07:36:02;;;;;;;7.32;2.17;;;;;;;16.71;94.56;100817.53;6218147;23;20027;-64
2022/10/14 07:38:30;;;;;;;4.78;2.10;;;;;;;16.74;93.24;100830.72;6218234;23;20332;-65
2022/10/14 07:41:06;;;;;;;6.13;1.85;;;;;;;16.82;93.50;100833.34;6246684;23;20028;-65
2022/10/14 07:43:34;;;;;;;6.63;2.13;;;;;;;17.09;91.90;100830.94;6254603;22;20054;-65
2022/10/14 07:46:04;;;;;;;7.15;2.70;;;;;;;16.96;91.66;100830.22;6274334;22;20030;-66
2022/10/14 07:48:33;;;;;;;4.80;1.42;;;;;;;16.75;92.19;100832.34;6248233;22;20311;-66
2022/10/14 07:51:20;;;;;;;6.50;1.73;;;;;;;16.95;91.37;100838.88;6276108;22;20016;-65
2022/10/14 07:53:48;;;;;;;8.20;2.70;;;;;;;16.77;92.24;100828.03;6277060;22;20033;-64
2022/10/14 07:56:16;;;;;;;8.73;1.75;;;;;;;16.92;92.09;100834.03;6250050;22;20019;-64
2022/10/14 07:58:43;;;;;;;6.18;1.65;;;;;;;17.05;91.48;100847.53;6248997;22;20027;-64
2022/10/14 08:01:11;;;;;;;4.72;1.73;;;;;;;16.86;91.26;100841.81;6247633;22;20024;-64
2022/10/14 08:03:39;;;;;;;9.05;3.25;;;;;;;17.11;91.25;100835.00;6275746;22;20015;-64
2022/10/14 08:06:06;;;;;;;6.93;3.50;;;;;;;17.22;89.94;100838.09;6249359;22;20071;-64
2022/10/14 08:08:34;;;;;;;6.75;2.92;;;;;;;17.22;89.12;100849.22;6276020;22;20015;-64
2022/10/14 08:11:23;;;;;;;5.38;1.90;;;;;;;17.11;88.89;100850.88;6276033;22;20015;-63
2022/10/14 08:13:51;;;;;;;3.33;1.65;;;;;;;17.18;88.14;100848.31;6277152;22;20020;-64
2022/10/14 08:16:20;;;;;;;3.97;1.40;;;;;;;17.06;87.47;100854.75;6249650;22;20031;-63
2022/10/14 08:18:48;;;;;;;3.77;1.43;;;;;;;17.12;88.76;100858.88;6276753;22;20015;-65
2022/10/14 08:21:17;;;;;;;10.23;2.25;;;;;;;17.18;87.95;100859.44;6248218;22;20574;-64
2022/10/14 08:23:44;;;;;;;9.45;1.90;;;;;;;17.40;86.71;100853.34;6277475;22;20019;-64
2022/10/14 08:26:17;;;;;;;7.18;1.70;;;;;;;17.39;86.69;100858.09;6274551;22;20023;-64
2022/10/14 08:28:44;;;;;;;7.57;2.20;;;;;;;17.30;86.55;100849.06;6274991;22;20091;-64
2022/10/14 08:31:12;;;;;;;5.15;1.65;;;;;;;17.44;86.96;100865.34;6276669;22;20026;-64
2022/10/14 08:33:39;;;;;;;5.57;2.22;;;;;;;17.52;86.47;100862.44;6277209;22;20015;-64
2022/10/14 08:36:07;;;;;;;6.13;2.25;;;;;;;17.51;86.02;100858.06;6275730;22;20020;-64
2022/10/14 08:38:34;;;;;;;3.90;1.85;;;;;;;17.46;86.33;100854.69;6248557;22;20026;-65
2022/10/14 08:41:11;;;;;;;6.85;1.92;;;;;;;17.44;85.64;100855.03;6247851;22;20098;-64
2022/10/14 08:43:42;;;;;;;8.02;3.28;;;;;;;17.52;86.19;100856.09;6276446;22;20016;-61
2022/10/14 08:46:18;;;;;;;4.78;2.13;;;;;;;17.68;84.97;100845.75;6274855;22;20023;-64
2022/10/14 08:48:46;;;;;;;9.13;2.03;;;;;;;17.62;85.09;100842.44;6248167;22;20024;-65
2022/10/14 08:51:16;;;;;;;6.75;2.03;;;;;;;17.60;84.85;100849.53;6249195;22;20018;-63
2022/10/14 08:53:55;;;;;;;5.13;1.97;;;;;;;17.38;85.56;100848.09;6247693;22;20020;-62
2022/10/14 08:56:23;;;;;;;3.97;1.83;;;;;;;17.43;86.59;100850.66;6247355;22;20019;-62
2022/10/14 08:58:52;;;;;;;7.32;2.63;;;;;;;17.48;86.28;100846.81;6274769;22;20095;-64
2022/10/14 09:01:35;;;;;;;9.23;3.37;;;;;;;17.23;86.37;100851.66;6247508;22;20019;-64
2022/10/14 09:04:09;;;;;;;6.75;2.03;;;;;;;17.19;87.05;100853.53;6247373;22;20020;-62
2022/10/14 09:06:39;;;;;;;7.10;2.97;;;;;;;17.20;87.25;100852.38;6223566;22;20023;-62
2022/10/14 09:09:15;;;;;;;11.20;2.35;;;;;;;17.20;87.73;100855.16;6223668;22;20080;-62
2022/10/14 09:11:45;;;;;;;13.73;2.17;;;;;;;17.31;87.49;100844.31;6249228;22;20020;-62
2022/10/14 09:14:20;;;;;;;8.75;2.25;;;;;;;17.32;87.02;100843.97;6224527;22;20030;-61
2022/10/14 09:16:51;;;;;;;6.65;2.67;;;;;;;17.42;86.12;100837.06;6246410;22;20019;-63
2022/10/14 09:19:45;;;;;;;6.45;2.20;;;;;;;17.01;86.54;100832.75;6248800;22;20437;-62
2022/10/14 09:22:14;;;;;;;5.35;2.17;;;;;;;16.93;87.92;100821.75;6275793;22;20031;-63
2022/10/14 09:24:45;;;;;;;6.15;2.13;;;;;;;17.21;88.98;100836.50;6247568;22;20022;-62
2022/10/14 09:27:16;;;;;;;8.98;3.00;;;;;;;17.41;88.08;100822.34;6249147;22;20026;-61
2022/10/14 09:29:56;;;;;;;5.95;2.20;;;;;;;17.48;87.13;100827.31;6250620;22;20040;-62
2022/10/14 09:32:29;;;;;;;5.03;2.45;;;;;;;17.51;86.41;100827.41;6249380;22;20022;-63
2022/10/14 09:34:57;;;;;;;8.65;2.78;;;;;;;17.55;86.71;100831.13;6276054;22;20344;-62
2022/10/14 09:37:24;;;;;;;14.68;3.38;;;;;;;17.64;86.27;100834.50;6275865;22;20026;-62
2022/10/14 09:39:55;;;;;;;5.95;2.45;;;;;;;17.42;86.57;100829.50;6276991;22;20027;-61
2022/10/14 09:42:24;;;;;;;;;;;;;;;17.42;87.21;100828.69;6277138;22;20026;-62
2022/10/14 09:45:13;;;;;;;7.88;2.63;;;;;;;17.56;86.77;100820.75;6273792;22;19925;-62
2022/10/14 09:47:58;;;;;;;9.80;3.03;;;;;;;17.83;85.54;100825.47;6277252;22;20038;-61
2022/10/14 09:50:38;;;;;;;8.25;4.07;;;;;;;17.77;85.80;100819.34;6276386;22;20016;-61
2022/10/14 09:53:12;;;;;;;6.75;2.95;;;;;;;17.77;85.91;100824.94;6285835;22;20019;-62
2022/10/14 09:55:47;;;;;;;12.07;2.88;;;;;;;17.60;86.24;100822.50;6250068;22;20015;-64
2022/10/14 09:58:40;;;;;;;12.00;2.70;;;;;;;17.47;87.34;100823.72;6223844;22;20068;-63
2022/10/14 10:01:13;;;;;;;10.27;2.88;;;;;;;17.62;87.12;100813.78;6275239;22;20020;-62
2022/10/14 10:03:40;;;;;;;9.82;3.70;;;;;;;17.63;86.90;100820.94;6250357;22;20019;-61
2022/10/14 10:06:10;;;;;;;22.95;13.93;;;;;;;17.74;86.86;100816.47;6258438;22;20019;-64
2022/10/14 10:09:00;;;;;;;16.30;10.43;;;;;;;17.67;86.35;100824.66;6223783;22;20030;-62
2022/10/14 10:11:38;;;;;;;13.45;7.22;;;;;;;17.66;86.25;100815.47;6276610;22;20020;-62
2022/10/14 10:14:26;;;;;;;13.50;8.35;;;;;;;17.68;86.08;100817.91;6250311;22;20045;-61
2022/10/14 10:17:06;;;;;;;10.98;7.07;;;;;;;17.91;85.98;100818.91;6223689;22;20020;-63
2022/10/14 10:19:36;;;;;;;14.27;7.60;;;;;;;17.96;85.40;100810.25;6249966;22;20012;-61
2022/10/14 10:22:23;;;;;;;;;;;;;;;18.02;84.87;100810.81;6250041;22;20023;-62
2022/10/14 10:24:59;;;;;;;9.20;3.10;;;;;;;17.91;86.83;100816.09;6276519;22;19919;-64
2022/10/14 10:27:35;;;;;;;9.15;3.80;;;;;;;18.03;87.23;100815.22;6276779;22;20031;-65
2022/10/14 10:30:20;;;;;;;12.18;3.25;;;;;;;18.08;87.52;100806.59;6250620;22;20444;-65
2022/10/14 10:32:51;;;;;;;10.00;4.07;;;;;;;18.26;88.14;100791.88;6277805;22;20020;-64
2022/10/14 10:35:21;;;;;;;;;;;;;;;18.19;87.00;100790.91;6279357;22;20019;-64
2022/10/14 10:38:02;;;;;;;19.50;9.10;;;;;;;18.19;87.48;100802.06;6278745;22;19915;-64
2022/10/14 10:40:51;;;;;;;33.13;15.93;;;;;;;18.43;89.52;100797.09;6249346;22;20390;-66
2022/10/14 10:43:18;;;;;;;29.95;14.98;;;;;;;18.44;87.58;100797.91;6277271;22;20039;-68
2022/10/14 10:46:00;;;;;;;18.45;9.77;;;;;;;18.45;86.13;100797.53;6261687;22;20031;-65
2022/10/14 10:48:46;;;;;;;17.08;12.18;;;;;;;18.66;85.50;100786.84;6249697;22;20029;-66
2022/10/14 10:51:33;;;;;;;10.40;5.90;;;;;;;18.58;82.58;100785.09;6288376;22;20016;-66
2022/10/14 10:54:38;;;;;;;9.43;4.53;;;;;;;18.07;82.45;100780.69;6278492;22;20022;-63
2022/10/14 10:57:16;;;;;;;9.15;4.68;;;;;;;18.16;82.85;100764.56;6183276;23;20393;-65
2022/10/14 10:59:55;;;;;;;7.97;3.92;;;;;;;18.25;84.79;100750.41;6242849;22;20022;-66
2022/10/14 11:02:57;;;;;;;10.18;5.82;;;;;;;18.18;83.68;100753.88;6277994;22;20026;-66
2022/10/14 11:05:46;;;;;;;9.73;5.93;;;;;;;18.43;83.97;100748.88;6250924;22;20026;-66
2022/10/14 11:14:46;;;;;;;12.98;8.85;;;;;;;18.37;83.81;100744.72;6123349;23;20017;-62
2022/10/14 11:17:13;;;;;;;22.25;15.75;;;;;;;18.21;84.87;100747.56;6235933;22;20020;-66
2022/10/14 11:19:59;;;;;;;12.73;5.65;;;;;;;18.12;84.40;100748.91;6249687;22;20015;-65
2022/10/14 11:22:46;;;;;;;8.98;3.78;;;;;;;18.01;85.15;100736.72;6277183;22;20030;-65
2022/10/14 11:25:39;;;;;;;11.55;3.63;;;;;;;18.12;85.98;100729.41;6250909;22;20027;-65
2022/10/14 11:28:11;;;;;;;8.68;2.97;;;;;;;18.12;85.34;100721.84;6251469;22;20133;-66
2022/10/14 11:30:38;;;;;;;4.35;1.90;;;;;;;18.39;84.50;100718.09;6250652;22;20073;-65
2022/10/14 11:33:44;;;;;;;5.32;2.00;;;;;;;18.36;83.68;100713.22;6276104;22;20022;-65
2022/10/14 11:36:24;;;;;;;5.50;2.13;;;;;;;18.37;84.38;100705.66;6278635;22;20581;-66
2022/10/14 11:39:15;;;;;;;6.03;1.70;;;;;;;18.22;83.33;100707.34;6277753;22;20380;-66
2022/10/14 11:41:54;;;;;;;4.72;1.70;;;;;;;18.07;83.19;100701.81;6277832;22;20019;-65
2022/10/14 11:44:31;;;;;;;6.07;1.50;;;;;;;18.15;83.75;100698.03;6277457;22;20019;-65
2022/10/14 11:47:03;;;;;;;6.35;1.52;;;;;;;17.82;83.25;100699.25;6250079;22;20015;-64
2022/10/14 11:49:35;;;;;;;4.97;1.80;;;;;;;17.61;83.91;100690.38;6249052;22;20012;-65
2022/10/14 11:52:06;;;;;;;5.15;1.90;;;;;;;17.72;84.90;100690.66;6276827;22;20020;-65
2022/10/14 11:54:42;;;;;;;3.85;1.60;;;;;;;17.65;85.19;100696.88;6275045;22;20020;-65
2022/10/14 11:57:18;;;;;;;4.15;1.70;;;;;;;17.64;86.14;100680.50;6288111;22;20016;-65